createdAt,value
2022-08-20T00:01:18.089Z,99680.81
2022-08-20T00:03:27.692Z,99679.28
2022-08-20T00:05:36.988Z,99680.69
2022-08-20T00:07:38.831Z,99700.19
2022-08-20T00:09:41.690Z,99693.41
2022-08-20T00:11:43.638Z,99689.84
2022-08-20T00:13:49.522Z,99684.38
2022-08-20T00:15:51.710Z,99669.03
2022-08-20T00:17:54.461Z,99665.75
2022-08-20T00:19:56.220Z,99673.97
2022-08-20T00:21:58.499Z,99661.84
2022-08-20T00:24:00.369Z,99654.06
2022-08-20T00:26:02.025Z,99665.19
2022-08-20T00:28:03.994Z,99673.16
2022-08-20T00:30:10.065Z,99685.19
2022-08-20T00:32:11.655Z,99683.81
2022-08-20T00:34:13.236Z,99680.78
2022-08-20T00:36:17.568Z,99692.56
2022-08-20T00:38:19.684Z,99698.81
2022-08-20T00:40:25.477Z,99696.63
2022-08-20T00:42:27.117Z,99696.84
2022-08-20T00:44:29.422Z,99702.41
2022-08-20T00:46:32.194Z,99693.88
2022-08-20T00:48:36.559Z,99703.44
2022-08-20T00:50:38.459Z,99706.97
2022-08-20T00:52:42.918Z,99704.50
2022-08-20T00:54:55.491Z,99708.13
2022-08-20T00:57:05.696Z,99704.91
2022-08-20T00:59:11.410Z,99712.44
2022-08-20T01:01:15.825Z,99715.03
2022-08-20T01:03:20.544Z,99715.22
2022-08-20T01:05:27.885Z,99715.22
2022-08-20T01:07:35.080Z,99693.91
2022-08-20T01:09:58.302Z,99705.94
2022-08-20T01:12:01.069Z,99717.13
2022-08-20T01:14:36.361Z,99702.13
2022-08-20T01:16:40.665Z,99703.75
2022-08-20T01:18:43.196Z,99709.44
2022-08-20T01:20:50.034Z,99712.75
2022-08-20T01:23:29.859Z,99698.81
2022-08-20T01:25:37.285Z,99698.03
2022-08-20T01:27:42.640Z,99728.06
2022-08-20T01:29:45.402Z,99700.41
2022-08-20T01:31:46.980Z,99699.38
2022-08-20T01:33:49.707Z,99714.94
2022-08-20T01:35:52.966Z,99721.72
2022-08-20T01:37:55.233Z,99726.69
2022-08-20T01:39:57.124Z,99724.44
2022-08-20T01:42:08.175Z,99715.22
2022-08-20T01:44:16.840Z,99722.31
2022-08-20T01:46:20.295Z,99730.78
2022-08-20T01:48:23.158Z,99723.38
2022-08-20T01:50:30.050Z,99727.19
2022-08-20T01:52:40.151Z,99722.25
2022-08-20T01:54:41.784Z,99742.84
2022-08-20T01:57:03.676Z,99729.13
2022-08-20T01:59:07.275Z,99745.00
2022-08-20T02:01:29.285Z,99748.25
2022-08-20T02:03:34.971Z,99757.81
2022-08-20T02:05:39.144Z,99751.28
2022-08-20T02:07:41.218Z,99761.13
2022-08-20T02:09:43.436Z,99766.56
2022-08-20T02:11:46.755Z,99754.81
2022-08-20T02:13:49.706Z,99758.38
2022-08-20T02:15:51.288Z,99761.13
2022-08-20T02:17:53.007Z,99759.75
2022-08-20T02:20:00.456Z,99750.22
2022-08-20T02:22:06.997Z,99754.56
2022-08-20T02:24:09.524Z,99757.25
2022-08-20T02:26:11.954Z,99759.13
2022-08-20T02:28:17.223Z,99745.44
2022-08-20T02:30:27.790Z,99740.34
2022-08-20T02:32:33.676Z,99756.16
2022-08-20T02:34:36.423Z,99760.56
2022-08-20T02:36:39.070Z,99753.50
2022-08-20T02:38:41.346Z,99757.81
2022-08-20T02:40:44.367Z,99750.78
2022-08-20T02:42:45.970Z,99742.00
2022-08-20T02:44:47.615Z,99750.19
2022-08-20T02:46:50.220Z,99748.00
2022-08-20T02:48:51.841Z,99744.19
2022-08-20T02:50:57.727Z,99756.84
2022-08-20T02:52:59.451Z,99739.81
2022-08-20T02:55:01.035Z,99732.81
2022-08-20T02:57:04.257Z,99726.13
2022-08-20T02:59:06.235Z,99739.84
2022-08-20T03:01:12.600Z,99744.53
2022-08-20T03:03:15.442Z,99747.09
2022-08-20T03:05:17.179Z,99734.75
2022-08-20T03:07:19.007Z,99722.06
2022-08-20T03:09:20.596Z,99722.25
2022-08-20T03:11:22.369Z,99726.66
2022-08-20T03:13:24.218Z,99718.47
2022-08-20T03:15:25.801Z,99736.00
2022-08-20T03:17:27.636Z,99734.31
2022-08-20T03:19:29.990Z,99746.22
2022-08-20T03:21:32.197Z,99723.59
2022-08-20T03:23:34.887Z,99733.50
2022-08-20T03:25:37.302Z,99738.16
2022-08-20T03:27:39.025Z,99727.25
2022-08-20T03:29:41.009Z,99738.97
2022-08-20T03:31:42.673Z,99740.13
2022-08-20T03:33:52.748Z,99743.34
2022-08-20T03:35:55.345Z,99730.78
2022-08-20T03:37:57.406Z,99734.31
2022-08-20T03:39:59.944Z,99737.31
2022-08-20T03:42:01.629Z,99729.97
2022-08-20T03:44:03.469Z,99722.06
2022-08-20T03:46:05.314Z,99718.78
2022-08-20T03:48:24.004Z,99734.91
2022-08-20T03:50:28.556Z,99734.84
2022-08-20T03:52:30.276Z,99731.06
2022-08-20T03:54:32.299Z,99730.56
2022-08-20T03:56:33.932Z,99726.41
2022-08-20T03:58:36.430Z,99732.16
2022-08-20T04:00:44.541Z,99731.59
2022-08-20T04:02:47.050Z,99736.66
2022-08-20T04:04:48.785Z,99743.88
2022-08-20T04:06:50.553Z,99715.66
2022-08-20T04:08:54.154Z,99714.06
2022-08-20T04:10:59.992Z,99727.09
2022-08-20T04:13:01.724Z,99719.88
2022-08-20T04:15:03.729Z,99745.50
2022-08-20T04:17:10.628Z,99742.47
2022-08-20T04:19:12.290Z,99738.63
2022-08-20T04:21:14.055Z,99738.59
2022-08-20T04:23:15.661Z,99717.78
2022-08-20T04:25:17.322Z,99723.75
2022-08-20T04:27:21.273Z,99737.19
2022-08-20T04:29:24.892Z,99730.34
2022-08-20T04:31:33.333Z,99739.41
2022-08-20T04:33:35.465Z,99739.78
2022-08-20T04:35:37.582Z,99754.31
2022-08-20T04:37:42.054Z,99745.25
2022-08-20T04:39:43.647Z,99747.41
2022-08-20T04:41:45.387Z,99740.22
2022-08-20T04:43:46.995Z,99747.16
2022-08-20T04:45:49.252Z,99754.81
2022-08-20T04:47:51.290Z,99760.66
2022-08-20T04:49:52.896Z,99752.88
2022-08-20T04:51:59.464Z,99759.59
2022-08-20T04:54:02.864Z,99767.28
2022-08-20T04:56:04.620Z,99752.81
2022-08-20T04:58:09.609Z,99760.69
2022-08-20T05:00:16.921Z,99753.88
2022-08-20T05:02:19.504Z,99761.91
2022-08-20T05:04:21.075Z,99753.44
2022-08-20T05:06:26.541Z,99763.78
2022-08-20T05:08:29.397Z,99772.44
2022-08-20T05:10:31.196Z,99768.31
2022-08-20T05:12:32.814Z,99770.00
2022-08-20T05:14:34.474Z,99761.06
2022-08-20T05:16:40.434Z,99761.97
2022-08-20T05:18:44.621Z,99755.53
2022-08-20T05:20:54.275Z,99761.84
2022-08-20T05:22:56.221Z,99760.72
2022-08-20T05:24:59.608Z,99771.41
2022-08-20T05:27:01.600Z,99778.16
2022-08-20T05:29:05.238Z,99773.16
2022-08-20T05:31:09.555Z,99775.25
2022-08-20T05:33:14.363Z,99778.22
2022-08-20T05:35:16.067Z,99781.19
2022-08-20T05:37:18.007Z,99783.28
2022-08-20T05:39:22.096Z,99765.72
2022-08-20T05:41:28.686Z,99784.91
2022-08-20T05:43:33.580Z,99793.63
2022-08-20T05:45:37.543Z,99779.63
2022-08-20T05:47:43.042Z,99797.00
2022-08-20T05:49:46.757Z,99788.09
2022-08-20T05:51:49.936Z,99795.50
2022-08-20T05:53:51.509Z,99802.94
2022-08-20T05:55:53.886Z,99812.34
2022-08-20T05:58:03.080Z,99806.69
2022-08-20T06:00:07.618Z,99806.81
2022-08-20T06:02:29.197Z,99803.22
2022-08-20T06:04:32.185Z,99809.88
2022-08-20T06:06:45.214Z,99801.22
2022-08-20T06:08:48.375Z,99793.91
2022-08-20T06:10:50.118Z,99803.19
2022-08-20T06:12:53.252Z,99814.34
2022-08-20T06:14:54.904Z,99823.31
2022-08-20T06:17:04.834Z,99819.81
2022-08-20T06:19:11.227Z,99812.78
2022-08-20T06:21:13.143Z,99804.25
2022-08-20T06:23:15.207Z,99817.94
2022-08-20T06:25:17.099Z,99797.63
2022-08-20T06:27:18.993Z,99815.69
2022-08-20T06:29:21.050Z,99805.72
2022-08-20T06:31:22.721Z,99790.00
2022-08-20T06:33:24.303Z,99800.19
2022-08-20T06:35:26.176Z,99799.53
2022-08-20T06:37:31.597Z,99809.84
2022-08-20T06:39:33.535Z,99800.66
2022-08-20T06:41:36.852Z,99804.81
2022-08-20T06:43:38.760Z,99827.97
2022-08-20T06:45:40.567Z,99821.03
2022-08-20T06:47:44.745Z,99822.47
2022-08-20T06:49:47.561Z,99819.56
2022-08-20T06:51:49.996Z,99807.09
2022-08-20T06:53:53.865Z,99808.81
2022-08-20T06:55:58.076Z,99815.09
2022-08-20T06:58:05.410Z,99814.06
2022-08-20T07:00:13.703Z,99823.56
2022-08-20T07:02:16.429Z,99818.66
2022-08-20T07:04:17.994Z,99829.84
2022-08-20T07:06:19.736Z,99831.16
2022-08-20T07:08:22.334Z,99824.28
2022-08-20T07:10:25.360Z,99819.31
2022-08-20T07:12:27.172Z,99819.53
2022-08-20T07:14:28.840Z,99817.63
2022-08-20T07:16:30.440Z,99826.88
2022-08-20T07:18:32.260Z,99821.44
2022-08-20T07:20:36.808Z,99837.13
2022-08-20T07:22:38.617Z,99841.34
2022-08-20T07:24:42.007Z,99833.97
2022-08-20T07:26:44.839Z,99843.06
2022-08-20T07:28:46.999Z,99838.31
2022-08-20T07:31:13.538Z,99841.72
2022-08-20T07:33:17.417Z,99845.41
2022-08-20T07:35:20.595Z,99835.19
2022-08-20T07:37:23.910Z,99852.06
2022-08-20T07:39:25.745Z,99864.91
2022-08-20T07:41:27.775Z,99855.53
2022-08-20T07:43:31.126Z,99856.84
2022-08-20T07:45:32.793Z,99859.19
2022-08-20T07:47:36.099Z,99861.28
2022-08-20T07:49:38.928Z,99864.66
2022-08-20T07:51:40.673Z,99866.41
2022-08-20T07:53:42.254Z,99849.66
2022-08-20T07:55:51.164Z,99856.19
2022-08-20T07:58:09.168Z,99863.31
2022-08-20T08:00:12.465Z,99861.69
2022-08-20T08:02:14.124Z,99860.56
2022-08-20T08:04:16.084Z,99862.25
2022-08-20T08:06:29.295Z,99874.25
2022-08-20T08:08:33.314Z,99861.41
2022-08-20T08:10:37.664Z,99866.84
2022-08-20T08:12:45.243Z,99865.25
2022-08-20T08:14:48.266Z,99879.34
2022-08-20T08:16:50.517Z,99861.66
2022-08-20T08:18:56.808Z,99860.34
2022-08-20T08:20:58.592Z,99870.31
2022-08-20T08:23:00.786Z,99855.94
2022-08-20T08:25:02.827Z,99872.41
2022-08-20T08:27:04.626Z,99859.81
2022-08-20T08:29:09.209Z,99846.66
2022-08-20T08:31:11.728Z,99862.38
2022-08-20T08:33:28.378Z,99842.00
2022-08-20T08:35:32.628Z,99854.59
2022-08-20T08:37:34.766Z,99855.13
2022-08-20T08:39:36.345Z,99858.66
2022-08-20T08:41:49.556Z,99854.84
2022-08-20T08:43:55.636Z,99850.44
2022-08-20T08:46:06.940Z,99851.84
2022-08-20T08:48:13.146Z,99866.78
2022-08-20T08:50:50.082Z,99854.84
2022-08-20T08:52:52.518Z,99859.63
2022-08-20T08:54:59.119Z,99855.66
2022-08-20T08:57:02.054Z,99852.91
2022-08-20T08:59:11.045Z,99862.25
2022-08-20T09:01:55.573Z,99865.25
2022-08-20T09:03:46.132Z,99861.63
2022-08-20T09:05:58.563Z,99843.38
2022-08-20T09:08:03.437Z,99861.28
2022-08-20T09:10:07.071Z,99872.09
2022-08-20T09:12:15.598Z,99864.16
2022-08-20T09:14:17.388Z,99870.44
2022-08-20T09:16:19.062Z,99863.03
2022-08-20T09:18:20.729Z,99852.38
2022-08-20T09:20:23.024Z,99851.97
2022-08-20T09:22:29.121Z,99860.13
2022-08-20T09:24:30.705Z,99865.09
2022-08-20T09:26:34.504Z,99866.41
2022-08-20T09:28:38.070Z,99854.25
2022-08-20T09:30:40.163Z,99861.66
2022-08-20T09:32:43.549Z,99862.56
2022-08-20T09:34:52.618Z,99859.94
2022-08-20T09:36:54.265Z,99872.38
2022-08-20T09:38:56.177Z,99855.41
2022-08-20T09:40:57.852Z,99851.03
2022-08-20T09:42:59.578Z,99850.13
2022-08-20T09:45:02.023Z,99855.78
2022-08-20T09:47:03.829Z,99849.50
2022-08-20T09:49:05.423Z,99844.59
2022-08-20T09:51:10.538Z,99835.69
2022-08-20T09:53:12.747Z,99841.44
2022-08-20T09:55:34.691Z,99845.13
2022-08-20T09:57:36.392Z,99852.06
2022-08-20T09:59:38.843Z,99846.28
2022-08-20T10:01:40.500Z,99835.41
2022-08-20T10:03:43.576Z,99840.34
2022-08-20T10:05:45.573Z,99837.28
2022-08-20T10:07:47.161Z,99845.84
2022-08-20T10:09:48.803Z,99832.13
2022-08-20T10:11:50.368Z,99826.09
2022-08-20T10:13:51.954Z,99822.31
2022-08-20T10:15:53.663Z,99832.34
2022-08-20T10:17:57.197Z,99832.69
2022-08-20T10:19:59.020Z,99837.63
2022-08-20T10:22:01.011Z,99837.41
2022-08-20T10:24:02.894Z,99841.28
2022-08-20T10:26:04.515Z,99835.38
2022-08-20T10:28:07.071Z,99831.72
2022-08-20T10:30:09.358Z,99828.50
2022-08-20T10:32:14.207Z,99824.25
2022-08-20T10:34:15.903Z,99827.75
2022-08-20T10:36:17.883Z,99822.03
2022-08-20T10:38:19.478Z,99818.69
2022-08-20T10:40:21.906Z,99823.84
2022-08-20T10:42:23.857Z,99824.69
2022-08-20T10:44:25.573Z,99824.44
2022-08-20T10:46:27.291Z,99818.16
2022-08-20T10:48:28.953Z,99815.88
2022-08-20T10:50:31.016Z,99815.56
2022-08-20T10:52:32.758Z,99833.94
2022-08-20T10:54:34.353Z,99828.94
2022-08-20T10:56:36.225Z,99829.06
2022-08-20T10:58:39.945Z,99826.03
2022-08-20T11:03:23.993Z,99799.91
2022-08-20T11:05:25.740Z,99802.34
2022-08-20T11:07:52.829Z,99818.44
2022-08-20T11:09:51.219Z,99826.19
2022-08-20T11:11:52.811Z,99826.97
2022-08-20T11:13:54.521Z,99819.97
2022-08-20T11:15:56.123Z,99820.44
2022-08-20T11:17:57.979Z,99814.97
2022-08-20T11:20:01.250Z,99817.72
2022-08-20T11:22:02.963Z,99810.28
2022-08-20T11:24:04.873Z,99808.41
2022-08-20T11:26:06.616Z,99810.16
2022-08-20T11:28:08.465Z,99811.38
2022-08-20T11:30:14.047Z,99813.25
2022-08-20T11:32:16.083Z,99794.72
2022-08-20T11:34:17.868Z,99803.81
2022-08-20T11:36:19.478Z,99802.16
2022-08-20T11:38:21.069Z,99800.44
2022-08-20T11:40:23.523Z,99795.72
2022-08-20T11:42:25.181Z,99807.41
2022-08-20T11:44:26.840Z,99806.22
2022-08-20T11:46:28.763Z,99804.06
2022-08-20T11:48:30.647Z,99802.28
2022-08-20T11:50:32.247Z,99794.78
2022-08-20T11:52:34.291Z,99806.56
2022-08-20T11:54:40.447Z,99804.53
2022-08-20T11:56:42.415Z,99798.75
2022-08-20T11:58:47.767Z,99797.41
2022-08-20T12:00:49.576Z,99790.44
2022-08-20T12:02:52.357Z,99809.25
2022-08-20T12:04:55.205Z,99798.84
2022-08-20T12:06:56.808Z,99797.53
2022-08-20T12:09:02.479Z,99793.72
2022-08-20T12:11:04.292Z,99798.00
2022-08-20T12:13:09.180Z,99803.50
2022-08-20T12:15:11.656Z,99791.06
2022-08-20T12:17:24.003Z,99803.41
2022-08-20T12:19:26.824Z,99790.47
2022-08-20T12:21:32.022Z,99786.97
2022-08-20T12:23:34.145Z,99783.78
2022-08-20T12:25:36.108Z,99796.53
2022-08-20T12:27:38.353Z,99780.28
2022-08-20T12:29:41.442Z,99776.38
2022-08-20T12:31:43.023Z,99769.66
2022-08-20T12:33:44.638Z,99767.47
2022-08-20T12:35:46.371Z,99783.78
2022-08-20T12:37:50.333Z,99778.84
2022-08-20T12:39:54.310Z,99789.66
2022-08-20T12:41:55.947Z,99776.50
2022-08-20T12:43:57.571Z,99771.16
2022-08-20T12:45:59.239Z,99773.94
2022-08-20T12:48:11.053Z,99772.72
2022-08-20T12:50:16.200Z,99776.81
2022-08-20T12:52:19.676Z,99786.94
2022-08-20T12:54:21.247Z,99785.53
2022-08-20T12:56:23.002Z,99760.16
2022-08-20T12:58:24.795Z,99766.72
2022-08-20T13:00:36.240Z,99770.53
2022-08-20T13:02:38.929Z,99773.31
2022-08-20T13:04:40.500Z,99773.09
2022-08-20T13:06:42.360Z,99768.78
2022-08-20T13:08:43.967Z,99761.13
2022-08-20T13:10:46.354Z,99759.94
2022-08-20T13:12:48.138Z,99762.09
2022-08-20T13:14:49.765Z,99769.22
2022-08-20T13:16:58.548Z,99769.78
2022-08-20T13:19:02.575Z,99761.88
2022-08-20T13:21:04.200Z,99772.47
2022-08-20T13:23:06.281Z,99756.44
2022-08-20T13:25:09.563Z,99765.41
2022-08-20T13:27:16.606Z,99752.69
2022-08-20T13:29:19.504Z,99766.69
2022-08-20T13:31:21.259Z,99746.59
2022-08-20T13:33:25.262Z,99741.53
2022-08-20T13:35:27.265Z,99744.75
2022-08-20T13:37:29.946Z,99745.72
2022-08-20T13:39:31.547Z,99737.56
2022-08-20T13:41:33.515Z,99734.44
2022-08-20T13:43:35.139Z,99728.88
2022-08-20T13:45:38.005Z,99735.25
2022-08-20T13:47:41.257Z,99725.91
2022-08-20T13:49:42.949Z,99722.78
2022-08-20T13:51:44.585Z,99720.31
2022-08-20T13:53:46.771Z,99727.81
2022-08-20T13:55:48.471Z,99724.53
2022-08-20T13:57:50.478Z,99727.56
2022-08-20T13:59:55.748Z,99712.50
2022-08-20T14:01:57.360Z,99711.84
2022-08-20T14:03:58.949Z,99710.72
2022-08-20T14:06:02.449Z,99716.94
2022-08-20T14:08:18.179Z,99719.91
2022-08-20T14:10:26.404Z,99723.81
2022-08-20T14:12:30.668Z,99712.78
2022-08-20T14:14:32.589Z,99716.13
2022-08-20T14:16:35.602Z,99722.59
2022-08-20T14:18:37.569Z,99707.81
2022-08-20T14:20:39.234Z,99716.06
2022-08-20T14:22:42.143Z,99722.69
2022-08-20T14:24:48.081Z,99695.16
2022-08-20T14:26:49.664Z,99699.13
2022-08-20T14:28:51.280Z,99714.53
2022-08-20T14:30:53.763Z,99714.03
2022-08-20T14:32:56.642Z,99727.22
2022-08-20T14:34:59.446Z,99729.00
2022-08-20T14:37:20.388Z,99735.66
2022-08-20T14:39:25.401Z,99731.56
2022-08-20T14:41:27.062Z,99716.03
2022-08-20T14:43:30.098Z,99719.81
2022-08-20T14:45:32.057Z,99717.91
2022-08-20T14:47:39.668Z,99725.53
2022-08-20T14:49:42.779Z,99721.28
2022-08-20T14:51:44.357Z,99716.31
2022-08-20T14:53:45.968Z,99696.19
2022-08-20T14:55:48.127Z,99694.97
2022-08-20T14:57:50.785Z,99709.34
2022-08-20T14:59:53.387Z,99707.22
2022-08-20T15:01:55.006Z,99710.72
2022-08-20T15:03:58.448Z,99716.72
2022-08-20T15:06:00.132Z,99706.50
2022-08-20T15:08:03.118Z,99711.84
2022-08-20T15:10:07.910Z,99711.69
2022-08-20T15:12:09.566Z,99711.13
2022-08-20T15:14:11.254Z,99700.16
2022-08-20T15:16:16.605Z,99695.38
2022-08-20T15:18:19.251Z,99699.53
2022-08-20T15:20:24.651Z,99706.25
2022-08-20T15:22:26.297Z,99712.88
2022-08-20T15:24:28.039Z,99695.91
2022-08-20T15:26:29.779Z,99679.94
2022-08-20T15:28:31.360Z,99691.66
2022-08-20T15:30:33.498Z,99694.44
2022-08-20T15:32:35.822Z,99695.06
2022-08-20T15:34:39.387Z,99703.38
2022-08-20T15:36:41.494Z,99705.78
2022-08-20T15:38:43.249Z,99699.88
2022-08-20T15:40:44.833Z,99690.22
2022-08-20T15:42:47.222Z,99686.59
2022-08-20T15:44:49.275Z,99700.28
2022-08-20T15:46:50.872Z,99683.63
2022-08-20T15:48:52.636Z,99680.16
2022-08-20T15:51:20.358Z,99677.78
2022-08-20T15:53:39.513Z,99671.47
2022-08-20T15:55:47.590Z,99679.91
2022-08-20T15:58:04.772Z,99695.16
2022-08-20T16:00:22.525Z,99702.25
2022-08-20T16:02:30.027Z,99708.41
2022-08-20T16:04:40.442Z,99717.47
2022-08-20T16:06:47.521Z,99707.53
2022-08-20T16:09:00.302Z,99715.50
2022-08-20T16:11:04.563Z,99717.41
2022-08-20T16:13:18.812Z,99711.13
2022-08-20T16:15:28.358Z,99715.53
2022-08-20T16:17:39.988Z,99708.03
2022-08-20T16:20:17.714Z,99707.19
2022-08-20T16:22:20.581Z,99714.94
2022-08-20T16:24:22.255Z,99689.88
2022-08-20T16:26:43.653Z,99698.66
2022-08-20T16:28:55.535Z,99702.34
2022-08-20T16:31:04.932Z,99694.91
2022-08-20T16:33:29.029Z,99712.31
2022-08-20T16:35:45.970Z,99699.13
2022-08-20T16:37:59.537Z,99700.81
2022-08-20T16:40:26.265Z,99705.28
2022-08-20T16:42:33.511Z,99709.28
2022-08-20T16:44:36.358Z,99710.97
2022-08-20T16:46:46.511Z,99703.38
2022-08-20T16:48:58.385Z,99719.38
2022-08-20T16:51:08.679Z,99722.19
2022-08-20T16:53:18.128Z,99719.06
2022-08-20T16:55:24.004Z,99708.88
2022-08-20T16:57:29.175Z,99719.66
2022-08-20T16:59:31.542Z,99731.03
2022-08-20T17:01:33.834Z,99724.06
2022-08-20T17:03:40.077Z,99737.84
2022-08-20T17:05:48.904Z,99716.75
2022-08-20T17:07:53.936Z,99729.47
2022-08-20T17:10:17.788Z,99723.81
2022-08-20T17:12:25.527Z,99717.44
2022-08-20T17:14:27.211Z,99708.19
2022-08-20T17:16:35.271Z,99697.97
2022-08-20T17:18:40.052Z,99714.22
2022-08-20T17:20:45.608Z,99711.94
2022-08-20T17:23:06.055Z,99705.19
2022-08-20T17:25:40.267Z,99713.00
2022-08-20T17:27:41.931Z,99716.69
2022-08-20T17:29:56.523Z,99715.16
2022-08-20T17:32:15.108Z,99713.59
2022-08-20T17:34:18.883Z,99726.22
2022-08-20T17:36:24.220Z,99734.28
2022-08-20T17:38:33.705Z,99720.81
2022-08-20T17:40:47.129Z,99732.28
2022-08-20T17:43:01.617Z,99729.25
2022-08-20T17:45:09.928Z,99722.34
2022-08-20T17:47:16.384Z,99726.00
2022-08-20T17:49:33.591Z,99724.41
2022-08-20T17:51:44.268Z,99721.84
2022-08-20T17:53:56.593Z,99723.47
2022-08-20T17:56:02.183Z,99716.91
2022-08-20T17:58:11.045Z,99728.50
2022-08-20T18:00:17.810Z,99719.88
2022-08-20T18:02:19.787Z,99723.00
2022-08-20T18:04:21.427Z,99728.06
2022-08-20T18:06:47.773Z,99723.53
2022-08-20T18:09:12.949Z,99713.88
2022-08-20T18:11:26.269Z,99721.41
2022-08-20T18:13:51.974Z,99726.75
2022-08-20T18:15:57.029Z,99728.63
2022-08-20T18:18:01.985Z,99727.00
2022-08-20T18:20:23.972Z,99724.38
2022-08-20T18:22:35.230Z,99735.44
2022-08-20T18:24:45.034Z,99724.03
2022-08-20T18:26:52.229Z,99719.91
2022-08-20T18:29:18.398Z,99719.19
2022-08-20T18:31:48.808Z,99734.66
2022-08-20T18:33:50.448Z,99737.63
2022-08-20T18:36:06.712Z,99732.66
2022-08-20T18:38:23.646Z,99743.63
2022-08-20T18:40:33.292Z,99734.88
2022-08-20T18:42:37.766Z,99745.97
2022-08-20T18:44:46.023Z,99735.84
2022-08-20T18:46:59.856Z,99744.66
2022-08-20T18:49:05.204Z,99742.03
2022-08-20T18:51:10.684Z,99748.22
2022-08-20T18:53:16.962Z,99741.66
2022-08-20T18:55:42.386Z,99729.19
2022-08-20T18:57:55.136Z,99737.63
2022-08-20T19:00:02.429Z,99749.59
2022-08-20T19:02:16.554Z,99744.47
2022-08-20T19:04:34.532Z,99754.34
2022-08-20T19:06:41.798Z,99754.09
2022-08-20T19:08:52.989Z,99764.88
2022-08-20T19:11:04.577Z,99750.50
2022-08-20T19:13:28.064Z,99755.28
2022-08-20T19:15:32.537Z,99754.56
2022-08-20T19:18:03.452Z,99764.28
2022-08-20T19:20:11.613Z,99774.22
2022-08-20T19:22:19.686Z,99771.81
2022-08-20T19:24:28.055Z,99776.63
2022-08-20T19:26:32.955Z,99768.09
2022-08-20T19:28:39.540Z,99777.25
2022-08-20T19:30:42.516Z,99774.81
2022-08-20T19:32:52.932Z,99768.66
2022-08-20T19:34:59.352Z,99778.22
2022-08-20T19:37:35.218Z,99766.50
2022-08-20T19:39:42.023Z,99772.38
2022-08-20T19:41:56.204Z,99766.69
2022-08-20T19:43:59.331Z,99763.03
2022-08-20T19:46:01.926Z,99779.31
2022-08-20T19:48:43.929Z,99765.19
2022-08-20T19:50:54.787Z,99765.78
2022-08-20T19:53:36.476Z,99766.03
2022-08-20T19:55:40.792Z,99777.09
2022-08-20T19:57:59.718Z,99773.06
2022-08-20T20:00:09.218Z,99774.09
2022-08-20T20:02:20.248Z,99771.94
2022-08-20T20:04:26.844Z,99780.97
2022-08-20T20:06:36.270Z,99780.94
2022-08-20T20:09:00.116Z,99773.78
2022-08-20T20:11:01.767Z,99777.09
2022-08-20T20:13:09.743Z,99779.84
2022-08-20T20:15:11.616Z,99784.00
2022-08-20T20:17:22.971Z,99775.50
2022-08-20T20:19:27.250Z,99777.19
2022-08-20T20:21:40.513Z,99770.00
2022-08-20T20:23:52.323Z,99765.34
2022-08-20T20:25:59.556Z,99780.19
2022-08-20T20:28:15.947Z,99772.25
2022-08-20T20:30:29.709Z,99757.56
2022-08-20T20:32:33.842Z,99764.94
2022-08-20T20:34:54.872Z,99754.84
2022-08-20T20:37:06.451Z,99756.75
2022-08-20T20:39:14.513Z,99758.41
2022-08-20T20:41:23.884Z,99762.78
2022-08-20T20:43:27.493Z,99764.63
2022-08-20T20:45:33.404Z,99759.44
2022-08-20T20:47:36.182Z,99752.56
2022-08-20T20:49:49.618Z,99733.88
2022-08-20T20:51:56.093Z,99738.44
2022-08-20T20:54:03.138Z,99759.72
2022-08-20T20:56:04.924Z,99745.56
2022-08-20T20:58:06.558Z,99752.88
2022-08-20T21:00:13.406Z,99752.78
2022-08-20T21:02:17.196Z,99769.81
2022-08-20T21:04:23.784Z,99752.34
2022-08-20T21:06:27.768Z,99766.34
2022-08-20T21:08:29.765Z,99781.59
2022-08-20T21:10:38.278Z,99788.34
2022-08-20T21:12:40.673Z,99771.78
2022-08-20T21:14:42.437Z,99766.03
2022-08-20T21:16:44.856Z,99781.91
2022-08-20T21:18:46.571Z,99795.50
2022-08-20T21:20:50.827Z,99795.34
2022-08-20T21:22:52.718Z,99768.41
2022-08-20T21:24:54.326Z,99783.28
2022-08-20T21:26:56.153Z,99777.31
2022-08-20T21:28:57.840Z,99777.16
2022-08-20T21:31:00.569Z,99773.66
2022-08-20T21:33:02.253Z,99785.66
2022-08-20T21:35:04.080Z,99784.66
2022-08-20T21:37:05.699Z,99780.34
2022-08-20T21:39:07.308Z,99769.09
2022-08-20T21:41:08.946Z,99778.31
2022-08-20T21:43:10.988Z,99769.97
2022-08-20T21:45:18.473Z,99778.88
2022-08-20T21:47:20.976Z,99790.69
2022-08-20T21:49:23.588Z,99797.59
2022-08-20T21:51:27.351Z,99794.41
2022-08-20T21:53:29.988Z,99802.94
2022-08-20T21:55:39.439Z,99796.13
2022-08-20T21:57:42.789Z,99806.25
2022-08-20T21:59:44.454Z,99785.63
2022-08-20T22:01:46.293Z,99798.53
2022-08-20T22:03:49.558Z,99795.97
2022-08-20T22:05:53.672Z,99809.28
2022-08-20T22:07:55.256Z,99801.81
2022-08-20T22:09:56.950Z,99804.84
2022-08-20T22:12:01.148Z,99785.28
2022-08-20T22:14:06.950Z,99797.03
2022-08-20T22:16:11.176Z,99805.63
2022-08-20T22:18:13.060Z,99798.09
2022-08-20T22:20:14.660Z,99814.13
2022-08-20T22:22:17.528Z,99813.59
2022-08-20T22:24:19.145Z,99808.81
2022-08-20T22:26:21.133Z,99812.75
2022-08-20T22:28:23.345Z,99809.44
2022-08-20T22:30:25.974Z,99791.41
2022-08-20T22:32:33.426Z,99788.69
2022-08-20T22:34:49.388Z,99814.78
2022-08-20T22:36:53.870Z,99804.41
2022-08-20T22:38:55.766Z,99802.41
2022-08-20T22:40:57.605Z,99802.34
2022-08-20T22:42:59.492Z,99799.31
2022-08-20T22:45:01.252Z,99802.16
2022-08-20T22:47:07.098Z,99790.03
2022-08-20T22:49:11.860Z,99808.31
2022-08-20T22:51:21.884Z,99801.44
2022-08-20T22:53:26.326Z,99793.88
2022-08-20T22:55:27.979Z,99811.31
2022-08-20T22:57:30.206Z,99813.13
2022-08-20T22:59:45.902Z,99811.47
2022-08-20T23:01:54.883Z,99798.59
2022-08-20T23:04:19.871Z,99803.50
2022-08-20T23:06:21.846Z,99810.31
2022-08-20T23:08:23.480Z,99816.53
2022-08-20T23:10:31.693Z,99808.97
2022-08-20T23:12:33.385Z,99805.31
2022-08-20T23:14:35.141Z,99818.06
2022-08-20T23:16:41.319Z,99826.59
2022-08-20T23:18:43.109Z,99824.81
2022-08-20T23:20:50.294Z,99827.22
2022-08-20T23:22:51.893Z,99820.06
2022-08-20T23:25:00.404Z,99824.72
2022-08-20T23:27:03.389Z,99821.75
2022-08-20T23:29:04.975Z,99819.81
2022-08-20T23:31:06.677Z,99824.13
2022-08-20T23:33:08.307Z,99821.75
2022-08-20T23:35:11.075Z,99831.34
2022-08-20T23:37:13.357Z,99824.53
2022-08-20T23:39:15.397Z,99828.09
2022-08-20T23:41:18.648Z,99832.47
2022-08-20T23:43:20.281Z,99834.84
2022-08-20T23:45:22.048Z,99821.59
2022-08-20T23:47:24.633Z,99833.41
2022-08-20T23:49:27.479Z,99827.66
2022-08-20T23:51:29.300Z,99805.78
2022-08-20T23:53:31.213Z,99816.84
2022-08-20T23:55:33.571Z,99808.56
2022-08-20T23:57:35.419Z,99805.66
2022-08-20T23:59:37.010Z,99806.72
